Terminal Aerodrome Forecast
Issued by NWS

Current Version | Previous Version | Graphics & Text | Print | Product List | Glossary On
Versions: 1 2 3 4 5 6 7 8 9 10 11 12 13 14 15 16 17 18 19 20 21 22 23
000
FTUS41 KRLX 270228 AAA
TAFCKB
TAF AMD
KCKB 270228Z 2702/2724 00000KT P6SM BKN040
      TEMPO 2702/2706 BKN025
     FM270600 00000KT 6SM BR SCT040
     FM270800 00000KT 5SM BR SCT040
     FM271200 00000KT 6SM BR SCT035
     FM271300 00000KT P6SM SCT035=

USA.gov is the U.S. government's official web portal to all federal, state and local government web resources and services.